createdAt,value
2018-06-04T00:00:03.369Z,21.90
2018-06-04T00:02:31.880Z,22.37
2018-06-04T00:05:00.336Z,22.07
2018-06-04T00:07:28.872Z,23.20
2018-06-04T00:09:58.241Z,22.23
2018-06-04T00:12:26.728Z,22.93
2018-06-04T00:14:55.187Z,22.00
2018-06-04T00:18:44.136Z,21.30
2018-06-04T00:21:12.669Z,22.53
2018-06-04T00:23:41.160Z,22.43
2018-06-04T00:26:09.649Z,22.43
2018-06-04T00:28:38.124Z,22.20
2018-06-04T00:31:06.632Z,23.00
2018-06-04T00:33:34.832Z,22.37
2018-06-04T00:36:03.353Z,22.53
2018-06-04T00:38:31.880Z,22.67
2018-06-04T00:41:00.011Z,22.60
2018-06-04T00:43:28.499Z,22.40
2018-06-04T00:45:56.980Z,21.40
2018-06-04T00:48:25.456Z,22.60
2018-06-04T00:50:53.908Z,21.67
2018-06-04T00:53:22.420Z,23.53
2018-06-04T00:56:02.191Z,22.57
2018-06-04T00:58:30.700Z,21.80
2018-06-04T01:00:59.099Z,22.80
2018-06-04T01:03:27.657Z,25.00
2018-06-04T01:05:56.211Z,24.87
2018-06-04T01:08:24.673Z,23.37
2018-06-04T01:10:53.128Z,24.27
2018-06-04T01:13:21.636Z,25.83
2018-06-04T01:15:50.089Z,27.23
2018-06-04T01:18:18.579Z,26.03
2018-06-04T01:20:47.078Z,26.60
2018-06-04T01:23:15.664Z,26.47
2018-06-04T01:25:44.124Z,25.17
2018-06-04T01:28:12.636Z,26.00
2018-06-04T01:30:41.124Z,25.67
2018-06-04T01:33:09.601Z,25.40
2018-06-04T01:35:38.120Z,25.43
2018-06-04T01:38:06.295Z,25.60
2018-06-04T01:40:34.435Z,26.53
2018-06-04T01:43:02.904Z,26.67
2018-06-04T01:45:31.432Z,26.53
2018-06-04T01:47:59.944Z,25.17
2018-06-04T01:50:28.460Z,25.33
2018-06-04T01:52:56.931Z,26.97
2018-06-04T01:55:25.475Z,27.63
2018-06-04T01:57:54.000Z,26.50
2018-06-04T02:00:22.496Z,26.43
2018-06-04T02:02:50.960Z,24.73
2018-06-04T02:05:19.434Z,23.20
2018-06-04T02:07:48.932Z,24.67
2018-06-04T02:10:18.467Z,22.73
2018-06-04T02:12:46.932Z,24.33
2018-06-04T02:15:15.454Z,23.80
2018-06-04T02:17:43.618Z,24.27
2018-06-04T02:20:12.083Z,23.47
2018-06-04T02:22:40.672Z,23.40
2018-06-04T02:25:09.171Z,24.13
2018-06-04T02:27:37.615Z,24.07
2018-06-04T02:30:06.152Z,24.57
2018-06-04T02:32:34.295Z,25.07
2018-06-04T02:35:02.768Z,23.37
2018-06-04T02:37:31.255Z,23.80
2018-06-04T02:39:59.715Z,23.70
2018-06-04T02:42:28.213Z,21.87
2018-06-04T02:44:56.700Z,24.53
2018-06-04T02:47:25.174Z,23.87
2018-06-04T02:49:53.719Z,24.03
2018-06-04T02:52:22.140Z,22.87
2018-06-04T02:54:50.607Z,23.70
2018-06-04T02:57:19.116Z,22.73
2018-06-04T02:59:47.576Z,22.97
2018-06-04T03:02:16.071Z,21.87
2018-06-04T03:04:44.569Z,23.37
2018-06-04T03:07:13.127Z,24.30
2018-06-04T03:09:41.620Z,26.03
2018-06-04T03:12:10.128Z,25.60
2018-06-04T03:14:38.303Z,24.67
2018-06-04T03:17:06.756Z,23.13
2018-06-04T03:19:35.235Z,24.63
2018-06-04T03:22:03.756Z,24.67
2018-06-04T03:24:31.918Z,24.57
2018-06-04T03:27:00.373Z,25.03
2018-06-04T03:29:28.892Z,25.20
2018-06-04T03:31:57.046Z,25.77
2018-06-04T03:34:25.500Z,24.33
2018-06-04T03:36:54.059Z,24.10
2018-06-04T03:39:22.584Z,25.53
2018-06-04T03:41:51.085Z,26.73
2018-06-04T03:44:19.532Z,25.10
2018-06-04T03:46:48.052Z,25.00
2018-06-04T03:49:16.295Z,24.53
2018-06-04T03:51:44.775Z,24.83
2018-06-04T03:54:13.285Z,23.80
2018-06-04T03:56:41.466Z,25.20
2018-06-04T03:59:09.628Z,24.63
2018-06-04T04:01:38.181Z,24.90
2018-06-04T04:04:07.702Z,24.47
2018-06-04T04:06:36.584Z,25.33
2018-06-04T04:09:08.277Z,24.43
2018-06-04T04:11:36.523Z,25.37
2018-06-04T04:14:05.216Z,24.77
2018-06-04T04:16:33.706Z,24.77
2018-06-04T04:19:02.222Z,24.80
2018-06-04T04:21:30.363Z,26.37
2018-06-04T04:23:58.864Z,24.40
2018-06-04T04:26:27.031Z,23.27
2018-06-04T04:28:55.207Z,24.60
2018-06-04T04:31:23.380Z,25.17
2018-06-04T04:33:51.596Z,24.63
2018-06-04T04:36:20.112Z,24.33
2018-06-04T04:38:48.620Z,23.80
2018-06-04T04:41:16.882Z,26.23
2018-06-04T04:43:45.352Z,24.10
2018-06-04T04:46:14.057Z,23.60
2018-06-04T04:48:42.219Z,24.20
2018-06-04T04:51:11.260Z,25.07
2018-06-04T04:53:39.668Z,24.33
2018-06-04T04:56:08.339Z,24.97
2018-06-04T04:58:36.914Z,24.43
2018-06-04T05:01:05.379Z,24.00
2018-06-04T05:03:33.561Z,24.80
2018-06-04T05:06:02.018Z,23.40
2018-06-04T05:08:30.486Z,24.33
2018-06-04T05:10:59.057Z,25.23
2018-06-04T05:13:27.588Z,24.50
2018-06-04T05:15:55.783Z,24.80
2018-06-04T05:18:24.325Z,25.40
2018-06-04T05:20:52.798Z,25.00
2018-06-04T05:23:21.296Z,25.30
2018-06-04T05:25:49.475Z,25.30
2018-06-04T05:28:17.918Z,26.00
2018-06-04T05:30:46.412Z,25.10
2018-06-04T05:33:14.891Z,24.50
2018-06-04T05:35:43.534Z,25.17
2018-06-04T05:38:12.056Z,25.03
2018-06-04T05:40:40.502Z,23.70
2018-06-04T05:43:09.951Z,24.30
2018-06-04T05:45:38.439Z,25.17
2018-06-04T05:48:06.914Z,26.33
2018-06-04T05:50:35.384Z,24.07
2018-06-04T05:53:03.911Z,24.67
2018-06-04T05:55:32.051Z,23.90
2018-06-04T05:58:00.593Z,23.30
2018-06-04T06:00:29.148Z,24.10
2018-06-04T06:02:57.379Z,24.57
2018-06-04T06:05:25.832Z,22.73
2018-06-04T06:07:54.352Z,24.00
2018-06-04T06:10:22.854Z,22.83
2018-06-04T06:12:51.010Z,23.00
2018-06-04T06:15:19.498Z,22.73
2018-06-04T06:17:47.952Z,22.57
2018-06-04T06:20:16.448Z,22.17
2018-06-04T06:22:45.243Z,21.37
2018-06-04T06:25:13.820Z,22.33
2018-06-04T06:27:42.300Z,24.33
2018-06-04T06:30:10.801Z,23.67
2018-06-04T06:32:39.294Z,21.90
2018-06-04T06:35:07.769Z,22.33
2018-06-04T06:37:36.217Z,19.37
2018-06-04T06:40:04.777Z,19.67
2018-06-04T06:42:33.361Z,20.30
2018-06-04T06:45:01.885Z,22.77
2018-06-04T06:47:30.360Z,21.30
2018-06-04T06:49:58.824Z,22.33
2018-06-04T06:52:27.316Z,20.47
2018-06-04T06:54:55.801Z,22.10
2018-06-04T06:57:24.290Z,22.83
2018-06-04T06:59:52.740Z,35.17
2018-06-04T07:02:21.278Z,21.20
2018-06-04T07:04:49.464Z,21.23
2018-06-04T07:07:17.599Z,22.20
2018-06-04T07:09:46.092Z,19.83
2018-06-04T07:12:14.732Z,21.30
2018-06-04T07:14:43.268Z,20.20
2018-06-04T07:17:11.760Z,20.70
2018-06-04T07:19:40.027Z,20.47
2018-06-04T07:22:08.517Z,20.23
2018-06-04T07:24:36.975Z,23.63
2018-06-04T07:27:05.459Z,21.40
2018-06-04T07:29:33.942Z,21.57
2018-06-04T07:32:02.396Z,21.20
2018-06-04T07:34:30.879Z,31.47
2018-06-04T07:36:59.380Z,20.17
2018-06-04T07:39:27.852Z,22.53
2018-06-04T07:41:56.332Z,20.60
2018-06-04T07:44:24.894Z,21.00
2018-06-04T07:46:53.417Z,20.67
2018-06-04T07:49:21.883Z,21.70
2018-06-04T07:51:50.396Z,22.50
2018-06-04T07:54:18.980Z,20.27
2018-06-04T07:56:47.428Z,23.03
2018-06-04T07:59:15.938Z,32.60
2018-06-04T08:01:44.393Z,20.77
2018-06-04T08:04:12.992Z,18.97
2018-06-04T08:06:41.159Z,19.17
2018-06-04T08:09:09.652Z,17.20
2018-06-04T08:11:38.121Z,17.57
2018-06-04T08:14:06.642Z,18.00
2018-06-04T08:16:35.080Z,15.60
2018-06-04T08:19:03.617Z,16.37
2018-06-04T08:21:32.056Z,16.40
2018-06-04T08:24:00.558Z,25.60
2018-06-04T08:26:29.032Z,26.33
2018-06-04T08:28:57.471Z,17.67
2018-06-04T08:31:25.995Z,14.07
2018-06-04T08:33:54.420Z,14.07
2018-06-04T08:36:22.951Z,12.40
2018-06-04T08:38:51.397Z,17.00
2018-06-04T08:41:19.897Z,12.70
2018-06-04T08:43:48.373Z,11.53
2018-06-04T08:46:16.935Z,12.70
2018-06-04T08:48:45.474Z,12.20
2018-06-04T08:51:13.944Z,17.50
2018-06-04T08:53:42.596Z,10.27
2018-06-04T08:56:11.306Z,10.50
2018-06-04T08:58:39.775Z,9.00
2018-06-04T09:01:08.425Z,9.23
2018-06-04T09:03:36.873Z,18.50
2018-06-04T09:06:05.424Z,10.27
2018-06-04T09:08:33.929Z,11.37
2018-06-04T09:11:02.422Z,10.43
2018-06-04T09:13:30.952Z,10.37
2018-06-04T09:15:59.456Z,9.83
2018-06-04T09:18:27.953Z,11.23
2018-06-04T09:20:56.500Z,10.57
2018-06-04T09:23:25.068Z,16.70
2018-06-04T09:25:53.523Z,9.77
2018-06-04T09:28:21.955Z,9.53
2018-06-04T09:30:50.467Z,10.57
2018-06-04T09:33:18.976Z,9.50
2018-06-04T09:35:47.389Z,8.50
2018-06-04T09:38:15.900Z,10.23
2018-06-04T09:40:44.403Z,9.73
2018-06-04T09:43:12.951Z,11.30
2018-06-04T09:45:41.447Z,9.70
2018-06-04T09:48:10.097Z,7.70
2018-06-04T09:50:38.583Z,9.37
2018-06-04T09:53:07.113Z,10.50
2018-06-04T09:55:35.573Z,8.50
2018-06-04T09:58:05.289Z,7.90
2018-06-04T10:00:35.223Z,8.83
2018-06-04T10:03:04.651Z,8.80
2018-06-04T10:05:32.811Z,11.37
2018-06-04T10:08:01.415Z,6.93
2018-06-04T10:10:29.616Z,8.93
2018-06-04T10:12:58.187Z,7.93
2018-06-04T10:15:26.703Z,7.20
2018-06-04T10:17:55.178Z,7.73
2018-06-04T10:20:23.758Z,7.50
2018-06-04T10:22:52.248Z,7.47
2018-06-04T10:25:20.800Z,7.93
2018-06-04T10:27:49.274Z,7.53
2018-06-04T10:30:17.707Z,8.67
2018-06-04T10:32:46.190Z,6.20
2018-06-04T10:35:14.804Z,7.27
2018-06-04T10:37:43.233Z,6.57
2018-06-04T10:40:11.711Z,7.20
2018-06-04T10:42:40.200Z,6.83
2018-06-04T10:45:08.783Z,7.40
2018-06-04T10:47:37.346Z,8.17
2018-06-04T10:50:05.933Z,105.70
2018-06-04T10:52:34.485Z,6.93
2018-06-04T10:55:02.711Z,6.33
2018-06-04T10:57:31.211Z,7.07
2018-06-04T10:59:59.752Z,6.87
2018-06-04T11:02:28.264Z,6.83
2018-06-04T11:04:56.847Z,6.43
2018-06-04T11:07:25.451Z,7.83
2018-06-04T11:09:53.908Z,6.50
2018-06-04T11:12:22.432Z,7.20
2018-06-04T11:14:50.883Z,6.20
2018-06-04T11:17:19.396Z,5.93
2018-06-04T11:19:47.932Z,9.60
2018-06-04T11:22:16.501Z,9.60
2018-06-04T11:24:45.051Z,5.70
2018-06-04T11:27:13.548Z,9.77
2018-06-04T11:29:41.699Z,5.93
2018-06-04T11:32:10.156Z,8.13
2018-06-04T11:34:38.696Z,6.53
2018-06-04T11:37:07.203Z,5.80
2018-06-04T11:39:35.809Z,6.00
2018-06-04T11:43:07.658Z,9.30
2018-06-04T11:45:36.185Z,16.07
2018-06-04T11:48:04.656Z,6.80
2018-06-04T11:50:33.208Z,7.03
2018-06-04T11:53:01.721Z,5.70
2018-06-04T11:55:30.330Z,8.70
2018-06-04T11:57:58.483Z,5.90
2018-06-04T12:00:26.903Z,5.87
2018-06-04T12:02:55.438Z,5.23
2018-06-04T12:05:23.918Z,9.40
2018-06-04T12:07:52.448Z,6.77
2018-06-04T12:10:20.861Z,6.17
2018-06-04T12:12:49.399Z,5.73
2018-06-04T12:15:17.825Z,5.80
2018-06-04T12:17:46.439Z,5.50
2018-06-04T12:20:14.975Z,5.43
2018-06-04T12:22:43.485Z,5.30
2018-06-04T12:25:12.358Z,5.00
2018-06-04T12:27:40.891Z,5.47
2018-06-04T12:30:09.378Z,5.13
2018-06-04T12:32:37.523Z,6.50
2018-06-04T12:35:06.347Z,4.67
2018-06-04T12:37:34.575Z,5.73
2018-06-04T12:40:03.120Z,5.50
2018-06-04T12:42:31.599Z,5.50
2018-06-04T12:44:59.760Z,5.67
2018-06-04T12:47:28.417Z,5.40
2018-06-04T12:49:56.907Z,5.40
2018-06-04T12:52:25.447Z,5.73
2018-06-04T12:54:53.952Z,5.13
2018-06-04T12:57:22.447Z,5.17
2018-06-04T12:59:50.941Z,5.10
2018-06-04T13:02:19.579Z,5.87
2018-06-04T13:04:48.193Z,5.53
2018-06-04T13:07:16.667Z,5.77
2018-06-04T13:09:45.800Z,5.57
2018-06-04T13:12:14.390Z,6.00
2018-06-04T13:14:42.825Z,5.50
2018-06-04T13:17:12.359Z,5.20
2018-06-04T13:19:40.866Z,5.60
2018-06-04T13:22:09.034Z,5.67
2018-06-04T13:24:37.212Z,5.43
2018-06-04T13:27:05.379Z,5.47
2018-06-04T13:29:33.912Z,5.00
2018-06-04T13:32:02.483Z,5.33
2018-06-04T13:34:31.029Z,5.30
2018-06-04T13:36:59.524Z,6.20
2018-06-04T13:39:27.848Z,6.13
2018-06-04T13:41:56.232Z,6.03
2018-06-04T13:44:24.722Z,5.20
2018-06-04T13:46:53.281Z,6.07
2018-06-04T13:49:21.971Z,5.40
2018-06-04T13:51:50.475Z,6.67
2018-06-04T13:54:18.991Z,13.33
2018-06-04T13:56:47.233Z,7.27
2018-06-04T13:59:15.805Z,7.80
2018-06-04T14:01:45.394Z,6.17
2018-06-04T14:04:13.975Z,6.10
2018-06-04T14:06:42.600Z,5.83
2018-06-04T14:09:11.314Z,5.83
2018-06-04T14:11:39.590Z,10.50
2018-06-04T14:14:07.799Z,5.70
2018-06-04T14:16:36.319Z,10.53
2018-06-04T14:19:04.825Z,6.30
2018-06-04T14:21:33.325Z,7.03
2018-06-04T14:24:01.932Z,6.77
2018-06-04T14:26:31.483Z,6.20
2018-06-04T14:29:00.112Z,6.30
2018-06-04T14:31:28.747Z,6.97
2018-06-04T14:33:57.292Z,7.30
2018-06-04T14:36:26.288Z,6.53
2018-06-04T14:38:54.820Z,6.07
2018-06-04T14:41:23.331Z,7.07
2018-06-04T14:43:51.835Z,6.57
2018-06-04T14:46:20.379Z,6.20
2018-06-04T14:48:48.867Z,7.00
2018-06-04T14:51:19.474Z,6.50
2018-06-04T14:53:47.911Z,6.90
2018-06-04T14:56:16.504Z,6.80
2018-06-04T14:58:45.085Z,6.30
2018-06-04T15:01:13.585Z,7.23
